sensor_id;sensor_type;location;lat;lon;timestamp;temperature;humidity
19242;DHT22;9755;47.790;9.620;2023-03-17T00:01:20;1.70;99.90
19242;DHT22;9755;47.790;9.620;2023-03-17T00:03:49;1.70;99.90
19242;DHT22;9755;47.790;9.620;2023-03-17T00:06:28;1.70;99.90
19242;DHT22;9755;47.790;9.620;2023-03-17T00:08:56;1.80;99.90
19242;DHT22;9755;47.790;9.620;2023-03-17T00:11:24;1.80;99.90
19242;DHT22;9755;47.790;9.620;2023-03-17T00:13:52;1.60;99.90
19242;DHT22;9755;47.790;9.620;2023-03-17T00:16:22;1.70;99.90
19242;DHT22;9755;47.790;9.620;2023-03-17T00:18:50;1.60;99.90
19242;DHT22;9755;47.790;9.620;2023-03-17T00:21:23;1.90;99.90
19242;DHT22;9755;47.790;9.620;2023-03-17T00:23:51;2.20;99.90
19242;DHT22;9755;47.790;9.620;2023-03-17T00:26:20;2.30;99.90
19242;DHT22;9755;47.790;9.620;2023-03-17T00:28:48;2.40;99.90
19242;DHT22;9755;47.790;9.620;2023-03-17T00:31:17;2.40;99.90
19242;DHT22;9755;47.790;9.620;2023-03-17T00:33:48;2.40;99.90
19242;DHT22;9755;47.790;9.620;2023-03-17T00:36:19;2.20;99.90
19242;DHT22;9755;47.790;9.620;2023-03-17T00:38:47;2.10;99.90
19242;DHT22;9755;47.790;9.620;2023-03-17T00:41:14;2.10;99.90
19242;DHT22;9755;47.790;9.620;2023-03-17T00:43:43;2.00;99.90
19242;DHT22;9755;47.790;9.620;2023-03-17T00:46:13;2.10;99.90
19242;DHT22;9755;47.790;9.620;2023-03-17T00:48:41;2.10;99.90
19242;DHT22;9755;47.790;9.620;2023-03-17T00:51:09;2.20;99.90
19242;DHT22;9755;47.790;9.620;2023-03-17T00:53:36;2.00;99.90
19242;DHT22;9755;47.790;9.620;2023-03-17T00:56:04;2.00;99.90
19242;DHT22;9755;47.790;9.620;2023-03-17T00:58:34;1.80;99.90
19242;DHT22;9755;47.790;9.620;2023-03-17T01:01:03;1.60;99.90
19242;DHT22;9755;47.790;9.620;2023-03-17T01:03:30;1.50;99.90
19242;DHT22;9755;47.790;9.620;2023-03-17T01:05:59;1.70;99.90
19242;DHT22;9755;47.790;9.620;2023-03-17T01:08:27;1.80;99.90
19242;DHT22;9755;47.790;9.620;2023-03-17T01:10:56;1.80;99.90
19242;DHT22;9755;47.790;9.620;2023-03-17T01:13:24;1.70;99.90
19242;DHT22;9755;47.790;9.620;2023-03-17T01:15:52;1.70;99.90
19242;DHT22;9755;47.790;9.620;2023-03-17T01:18:22;1.70;99.90
19242;DHT22;9755;47.790;9.620;2023-03-17T01:20:50;1.70;99.90
19242;DHT22;9755;47.790;9.620;2023-03-17T01:23:17;1.60;99.90
19242;DHT22;9755;47.790;9.620;2023-03-17T01:25:44;1.70;99.90
19242;DHT22;9755;47.790;9.620;2023-03-17T01:28:14;1.70;99.90
19242;DHT22;9755;47.790;9.620;2023-03-17T01:30:41;1.80;99.90
19242;DHT22;9755;47.790;9.620;2023-03-17T01:33:10;2.00;99.90
19242;DHT22;9755;47.790;9.620;2023-03-17T01:35:39;2.10;99.90
19242;DHT22;9755;47.790;9.620;2023-03-17T01:38:08;2.10;99.90
19242;DHT22;9755;47.790;9.620;2023-03-17T01:40:37;2.10;99.90
19242;DHT22;9755;47.790;9.620;2023-03-17T01:43:17;2.20;99.90
19242;DHT22;9755;47.790;9.620;2023-03-17T01:46:13;2.10;99.90
19242;DHT22;9755;47.790;9.620;2023-03-17T01:48:44;2.10;99.90
19242;DHT22;9755;47.790;9.620;2023-03-17T01:51:17;2.10;99.90
19242;DHT22;9755;47.790;9.620;2023-03-17T01:53:48;2.10;99.90
19242;DHT22;9755;47.790;9.620;2023-03-17T01:56:18;2.00;99.90
19242;DHT22;9755;47.790;9.620;2023-03-17T01:58:47;2.00;99.90
19242;DHT22;9755;47.790;9.620;2023-03-17T02:01:16;1.90;99.90
19242;DHT22;9755;47.790;9.620;2023-03-17T02:03:43;1.80;99.90
19242;DHT22;9755;47.790;9.620;2023-03-17T02:06:13;1.70;99.90
19242;DHT22;9755;47.790;9.620;2023-03-17T02:08:40;1.50;99.90
19242;DHT22;9755;47.790;9.620;2023-03-17T02:11:09;1.30;99.90
19242;DHT22;9755;47.790;9.620;2023-03-17T02:13:36;1.30;99.90
19242;DHT22;9755;47.790;9.620;2023-03-17T02:16:04;1.40;99.90
19242;DHT22;9755;47.790;9.620;2023-03-17T02:18:31;1.50;99.90
19242;DHT22;9755;47.790;9.620;2023-03-17T02:24:13;1.90;99.90
19242;DHT22;9755;47.790;9.620;2023-03-17T02:26:43;1.90;99.90
19242;DHT22;9755;47.790;9.620;2023-03-17T02:29:10;1.90;99.90
19242;DHT22;9755;47.790;9.620;2023-03-17T02:31:38;1.90;99.90
19242;DHT22;9755;47.790;9.620;2023-03-17T02:34:05;1.80;99.90
19242;DHT22;9755;47.790;9.620;2023-03-17T02:36:33;1.80;99.90
19242;DHT22;9755;47.790;9.620;2023-03-17T02:39:00;1.90;99.90
19242;DHT22;9755;47.790;9.620;2023-03-17T02:41:28;2.00;99.90
19242;DHT22;9755;47.790;9.620;2023-03-17T02:43:55;2.10;99.90
19242;DHT22;9755;47.790;9.620;2023-03-17T02:46:22;2.10;99.90
19242;DHT22;9755;47.790;9.620;2023-03-17T02:48:49;2.20;99.90
19242;DHT22;9755;47.790;9.620;2023-03-17T02:51:17;2.20;99.90
19242;DHT22;9755;47.790;9.620;2023-03-17T02:53:44;2.10;99.90
19242;DHT22;9755;47.790;9.620;2023-03-17T02:56:11;2.00;99.90
19242;DHT22;9755;47.790;9.620;2023-03-17T02:58:39;1.90;99.90
19242;DHT22;9755;47.790;9.620;2023-03-17T03:01:06;1.70;99.90
19242;DHT22;9755;47.790;9.620;2023-03-17T03:03:34;1.60;99.90
19242;DHT22;9755;47.790;9.620;2023-03-17T03:06:01;1.60;99.90
19242;DHT22;9755;47.790;9.620;2023-03-17T03:08:28;1.50;99.90
19242;DHT22;9755;47.790;9.620;2023-03-17T03:10:56;1.70;99.90
19242;DHT22;9755;47.790;9.620;2023-03-17T03:13:25;1.70;99.90
19242;DHT22;9755;47.790;9.620;2023-03-17T03:15:54;1.80;99.90
19242;DHT22;9755;47.790;9.620;2023-03-17T03:18:22;1.80;99.90
19242;DHT22;9755;47.790;9.620;2023-03-17T03:20:49;1.80;99.90
19242;DHT22;9755;47.790;9.620;2023-03-17T03:23:16;1.80;99.90
19242;DHT22;9755;47.790;9.620;2023-03-17T03:25:43;1.90;99.90
19242;DHT22;9755;47.790;9.620;2023-03-17T03:28:10;1.90;99.90
19242;DHT22;9755;47.790;9.620;2023-03-17T03:30:37;1.90;99.90
19242;DHT22;9755;47.790;9.620;2023-03-17T03:33:06;1.80;99.90
19242;DHT22;9755;47.790;9.620;2023-03-17T03:35:33;1.60;99.90
19242;DHT22;9755;47.790;9.620;2023-03-17T03:38:00;1.50;99.90
19242;DHT22;9755;47.790;9.620;2023-03-17T03:40:28;1.40;99.90
19242;DHT22;9755;47.790;9.620;2023-03-17T03:42:55;1.20;99.90
19242;DHT22;9755;47.790;9.620;2023-03-17T03:45:22;0.90;99.90
19242;DHT22;9755;47.790;9.620;2023-03-17T03:47:49;0.70;99.90
19242;DHT22;9755;47.790;9.620;2023-03-17T03:50:18;0.50;99.90
19242;DHT22;9755;47.790;9.620;2023-03-17T03:52:45;0.30;99.90
19242;DHT22;9755;47.790;9.620;2023-03-17T03:55:12;0.30;99.90
19242;DHT22;9755;47.790;9.620;2023-03-17T03:57:39;0.30;99.90
19242;DHT22;9755;47.790;9.620;2023-03-17T04:00:07;0.50;99.90
19242;DHT22;9755;47.790;9.620;2023-03-17T04:02:35;0.60;99.90
19242;DHT22;9755;47.790;9.620;2023-03-17T04:05:02;0.70;99.90
19242;DHT22;9755;47.790;9.620;2023-03-17T04:07:31;0.70;99.90
19242;DHT22;9755;47.790;9.620;2023-03-17T04:09:58;0.70;99.90
19242;DHT22;9755;47.790;9.620;2023-03-17T04:12:26;0.80;99.90
19242;DHT22;9755;47.790;9.620;2023-03-17T04:14:53;0.80;99.90
19242;DHT22;9755;47.790;9.620;2023-03-17T04:17:20;1.00;99.90
19242;DHT22;9755;47.790;9.620;2023-03-17T04:19:47;0.90;99.90
19242;DHT22;9755;47.790;9.620;2023-03-17T04:22:14;1.00;99.90
19242;DHT22;9755;47.790;9.620;2023-03-17T04:24:42;1.10;99.90
19242;DHT22;9755;47.790;9.620;2023-03-17T04:27:09;1.30;99.90
19242;DHT22;9755;47.790;9.620;2023-03-17T04:29:36;1.40;99.90
19242;DHT22;9755;47.790;9.620;2023-03-17T04:32:04;1.30;99.90
19242;DHT22;9755;47.790;9.620;2023-03-17T04:34:31;1.10;99.90
19242;DHT22;9755;47.790;9.620;2023-03-17T04:36:58;1.00;99.90
19242;DHT22;9755;47.790;9.620;2023-03-17T04:39:26;0.90;99.90
19242;DHT22;9755;47.790;9.620;2023-03-17T04:41:55;0.80;99.90
19242;DHT22;9755;47.790;9.620;2023-03-17T04:44:22;0.70;99.90
19242;DHT22;9755;47.790;9.620;2023-03-17T04:46:49;0.50;99.90
19242;DHT22;9755;47.790;9.620;2023-03-17T04:49:16;0.50;99.90
19242;DHT22;9755;47.790;9.620;2023-03-17T04:51:43;0.40;99.90
19242;DHT22;9755;47.790;9.620;2023-03-17T04:54:10;0.30;99.90
19242;DHT22;9755;47.790;9.620;2023-03-17T04:56:37;0.20;99.90
19242;DHT22;9755;47.790;9.620;2023-03-17T04:59:06;0.40;99.90
19242;DHT22;9755;47.790;9.620;2023-03-17T05:01:33;0.40;99.90
19242;DHT22;9755;47.790;9.620;2023-03-17T05:04:01;0.40;99.90
19242;DHT22;9755;47.790;9.620;2023-03-17T05:06:31;0.50;99.90
19242;DHT22;9755;47.790;9.620;2023-03-17T05:08:58;0.30;99.90
19242;DHT22;9755;47.790;9.620;2023-03-17T05:11:25;0.10;99.90
19242;DHT22;9755;47.790;9.620;2023-03-17T05:13:52;0.00;99.90
19242;DHT22;9755;47.790;9.620;2023-03-17T05:16:20;-0.10;99.90
19242;DHT22;9755;47.790;9.620;2023-03-17T05:18:48;-0.20;99.90
19242;DHT22;9755;47.790;9.620;2023-03-17T05:21:15;-0.30;99.90
19242;DHT22;9755;47.790;9.620;2023-03-17T05:23:42;-0.30;99.90
19242;DHT22;9755;47.790;9.620;2023-03-17T05:26:09;-0.20;99.90
19242;DHT22;9755;47.790;9.620;2023-03-17T05:28:36;-0.30;99.90
19242;DHT22;9755;47.790;9.620;2023-03-17T05:31:03;-0.40;99.90
19242;DHT22;9755;47.790;9.620;2023-03-17T05:33:32;-0.30;99.90
19242;DHT22;9755;47.790;9.620;2023-03-17T05:35:59;-0.40;99.90
19242;DHT22;9755;47.790;9.620;2023-03-17T05:38:26;-0.40;99.90
19242;DHT22;9755;47.790;9.620;2023-03-17T05:40:53;-0.50;99.90
19242;DHT22;9755;47.790;9.620;2023-03-17T05:43:20;-0.60;99.90
19242;DHT22;9755;47.790;9.620;2023-03-17T05:45:47;-0.50;99.90
19242;DHT22;9755;47.790;9.620;2023-03-17T05:48:15;-0.30;99.90
19242;DHT22;9755;47.790;9.620;2023-03-17T05:50:43;-0.20;99.90
19242;DHT22;9755;47.790;9.620;2023-03-17T05:53:11;0.00;99.90
19242;DHT22;9755;47.790;9.620;2023-03-17T05:55:38;0.30;99.90
19242;DHT22;9755;47.790;9.620;2023-03-17T05:58:05;0.60;99.90
19242;DHT22;9755;47.790;9.620;2023-03-17T06:00:32;0.70;99.90
19242;DHT22;9755;47.790;9.620;2023-03-17T06:03:00;0.80;99.90
19242;DHT22;9755;47.790;9.620;2023-03-17T06:05:28;0.80;99.90
19242;DHT22;9755;47.790;9.620;2023-03-17T06:07:57;0.80;99.90
19242;DHT22;9755;47.790;9.620;2023-03-17T06:10:24;0.80;99.90
19242;DHT22;9755;47.790;9.620;2023-03-17T06:12:51;0.80;99.90
19242;DHT22;9755;47.790;9.620;2023-03-17T06:15:19;0.90;99.90
19242;DHT22;9755;47.790;9.620;2023-03-17T06:17:46;0.90;99.90
19242;DHT22;9755;47.790;9.620;2023-03-17T06:20:13;1.10;99.90
19242;DHT22;9755;47.790;9.620;2023-03-17T06:22:40;1.30;99.90
19242;DHT22;9755;47.790;9.620;2023-03-17T06:25:09;1.50;99.90
19242;DHT22;9755;47.790;9.620;2023-03-17T06:27:37;2.10;99.90
19242;DHT22;9755;47.790;9.620;2023-03-17T06:30:07;2.90;99.90
19242;DHT22;9755;47.790;9.620;2023-03-17T06:32:36;4.00;99.90
19242;DHT22;9755;47.790;9.620;2023-03-17T06:35:04;4.70;99.90
19242;DHT22;9755;47.790;9.620;2023-03-17T06:37:31;5.00;99.90
19242;DHT22;9755;47.790;9.620;2023-03-17T06:40:02;5.20;99.90
19242;DHT22;9755;47.790;9.620;2023-03-17T06:42:31;5.60;99.90
19242;DHT22;9755;47.790;9.620;2023-03-17T06:44:58;6.20;99.90
19242;DHT22;9755;47.790;9.620;2023-03-17T06:47:25;7.30;99.90
19242;DHT22;9755;47.790;9.620;2023-03-17T06:49:52;8.00;99.90
19242;DHT22;9755;47.790;9.620;2023-03-17T06:52:20;8.10;99.90
19242;DHT22;9755;47.790;9.620;2023-03-17T06:54:47;8.30;99.90
19242;DHT22;9755;47.790;9.620;2023-03-17T06:57:14;7.80;99.90
19242;DHT22;9755;47.790;9.620;2023-03-17T06:59:42;6.90;99.90
19242;DHT22;9755;47.790;9.620;2023-03-17T07:02:10;6.40;99.90
19242;DHT22;9755;47.790;9.620;2023-03-17T07:04:37;6.40;99.90
19242;DHT22;9755;47.790;9.620;2023-03-17T07:07:05;6.80;99.90
19242;DHT22;9755;47.790;9.620;2023-03-17T07:09:33;7.90;99.90
19242;DHT22;9755;47.790;9.620;2023-03-17T07:12:01;9.20;99.90
19242;DHT22;9755;47.790;9.620;2023-03-17T07:14:31;10.30;99.90
19242;DHT22;9755;47.790;9.620;2023-03-17T07:17:01;11.00;99.90
19242;DHT22;9755;47.790;9.620;2023-03-17T07:19:28;10.50;99.90
19242;DHT22;9755;47.790;9.620;2023-03-17T07:21:55;10.20;99.90
19242;DHT22;9755;47.790;9.620;2023-03-17T07:24:23;9.80;99.90
19242;DHT22;9755;47.790;9.620;2023-03-17T07:26:50;9.90;99.90
19242;DHT22;9755;47.790;9.620;2023-03-17T07:29:17;10.60;99.90
19242;DHT22;9755;47.790;9.620;2023-03-17T07:31:45;11.30;99.10
19242;DHT22;9755;47.790;9.620;2023-03-17T07:34:14;11.70;97.90
19242;DHT22;9755;47.790;9.620;2023-03-17T07:36:42;11.40;97.00
19242;DHT22;9755;47.790;9.620;2023-03-17T07:39:09;11.40;95.90
19242;DHT22;9755;47.790;9.620;2023-03-17T07:41:37;11.80;96.40
19242;DHT22;9755;47.790;9.620;2023-03-17T07:44:04;12.60;95.40
19242;DHT22;9755;47.790;9.620;2023-03-17T07:46:31;12.60;93.60
19242;DHT22;9755;47.790;9.620;2023-03-17T07:51:38;13.00;91.60
19242;DHT22;9755;47.790;9.620;2023-03-17T07:54:07;15.10;85.30
19242;DHT22;9755;47.790;9.620;2023-03-17T07:56:34;15.40;80.40
19242;DHT22;9755;47.790;9.620;2023-03-17T07:59:02;15.00;73.60
19242;DHT22;9755;47.790;9.620;2023-03-17T08:01:29;14.20;76.10
19242;DHT22;9755;47.790;9.620;2023-03-17T08:03:56;13.60;78.00
19242;DHT22;9755;47.790;9.620;2023-03-17T08:06:24;14.20;77.80
19242;DHT22;9755;47.790;9.620;2023-03-17T08:08:53;14.80;76.80
19242;DHT22;9755;47.790;9.620;2023-03-17T08:11:20;13.60;75.30
19242;DHT22;9755;47.790;9.620;2023-03-17T08:13:48;13.40;79.80
19242;DHT22;9755;47.790;9.620;2023-03-17T08:16:15;13.90;77.40
19242;DHT22;9755;47.790;9.620;2023-03-17T08:18:42;14.10;74.40
19242;DHT22;9755;47.790;9.620;2023-03-17T08:21:09;14.70;76.90
19242;DHT22;9755;47.790;9.620;2023-03-17T08:23:36;15.90;73.30
19242;DHT22;9755;47.790;9.620;2023-03-17T08:26:05;16.70;69.20
19242;DHT22;9755;47.790;9.620;2023-03-17T08:28:33;17.30;66.20
19242;DHT22;9755;47.790;9.620;2023-03-17T08:31:08;17.20;61.70
19242;DHT22;9755;47.790;9.620;2023-03-17T08:33:35;16.80;61.40
19242;DHT22;9755;47.790;9.620;2023-03-17T08:36:03;16.80;61.40
19242;DHT22;9755;47.790;9.620;2023-03-17T08:38:31;17.20;60.40
19242;DHT22;9755;47.790;9.620;2023-03-17T08:41:00;17.30;59.30
19242;DHT22;9755;47.790;9.620;2023-03-17T08:43:29;17.10;59.70
19242;DHT22;9755;47.790;9.620;2023-03-17T08:46:00;17.40;58.40
19242;DHT22;9755;47.790;9.620;2023-03-17T08:48:28;18.10;56.50
19242;DHT22;9755;47.790;9.620;2023-03-17T08:50:56;17.90;55.80
19242;DHT22;9755;47.790;9.620;2023-03-17T08:53:24;17.60;56.00
19242;DHT22;9755;47.790;9.620;2023-03-17T08:55:54;17.20;56.60
19242;DHT22;9755;47.790;9.620;2023-03-17T08:58:21;17.50;56.50
19242;DHT22;9755;47.790;9.620;2023-03-17T09:00:50;17.90;55.90
19242;DHT22;9755;47.790;9.620;2023-03-17T09:03:18;18.50;53.80
19242;DHT22;9755;47.790;9.620;2023-03-17T09:05:46;19.20;51.80
19242;DHT22;9755;47.790;9.620;2023-03-17T09:08:14;19.30;50.00
19242;DHT22;9755;47.790;9.620;2023-03-17T09:10:42;19.80;49.20
19242;DHT22;9755;47.790;9.620;2023-03-17T09:13:09;20.20;47.20
19242;DHT22;9755;47.790;9.620;2023-03-17T09:15:36;21.20;44.90
19242;DHT22;9755;47.790;9.620;2023-03-17T09:48:22;22.10;42.10
19242;DHT22;9755;47.790;9.620;2023-03-17T09:50:54;20.40;34.90
19242;DHT22;9755;47.790;9.620;2023-03-17T09:53:26;20.50;34.80
19242;DHT22;9755;47.790;9.620;2023-03-17T09:56:00;20.80;35.10
19242;DHT22;9755;47.790;9.620;2023-03-17T09:58:31;21.40;34.10
19242;DHT22;9755;47.790;9.620;2023-03-17T10:00:59;21.60;34.00
19242;DHT22;9755;47.790;9.620;2023-03-17T10:03:26;21.90;32.80
19242;DHT22;9755;47.790;9.620;2023-03-17T10:05:58;21.80;33.90
19242;DHT22;9755;47.790;9.620;2023-03-17T10:08:46;21.90;33.10
19242;DHT22;9755;47.790;9.620;2023-03-17T10:11:23;22.10;33.40
19242;DHT22;9755;47.790;9.620;2023-03-17T10:41:32;23.00;32.60
19242;DHT22;9755;47.790;9.620;2023-03-17T10:44:00;24.50;26.00
19242;DHT22;9755;47.790;9.620;2023-03-17T10:46:29;24.10;25.80
19242;DHT22;9755;47.790;9.620;2023-03-17T10:49:04;23.90;25.50
19242;DHT22;9755;47.790;9.620;2023-03-17T10:51:35;23.90;24.00
19242;DHT22;9755;47.790;9.620;2023-03-17T10:54:08;23.20;24.90
19242;DHT22;9755;47.790;9.620;2023-03-17T10:56:38;23.40;24.40
19242;DHT22;9755;47.790;9.620;2023-03-17T10:59:14;23.00;23.10
19242;DHT22;9755;47.790;9.620;2023-03-17T11:01:46;23.40;23.70
19242;DHT22;9755;47.790;9.620;2023-03-17T11:04:27;23.70;23.10
19242;DHT22;9755;47.790;9.620;2023-03-17T11:06:57;22.70;23.20
19242;DHT22;9755;47.790;9.620;2023-03-17T11:09:26;22.50;22.80
19242;DHT22;9755;47.790;9.620;2023-03-17T11:12:02;22.10;23.00
19242;DHT22;9755;47.790;9.620;2023-03-17T11:14:31;22.80;24.80
19242;DHT22;9755;47.790;9.620;2023-03-17T11:17:00;22.20;24.20
19242;DHT22;9755;47.790;9.620;2023-03-17T11:19:38;22.40;25.20
19242;DHT22;9755;47.790;9.620;2023-03-17T11:22:12;22.70;25.90
19242;DHT22;9755;47.790;9.620;2023-03-17T11:24:48;22.90;27.20
19242;DHT22;9755;47.790;9.620;2023-03-17T11:27:27;23.00;26.20
19242;DHT22;9755;47.790;9.620;2023-03-17T11:30:12;22.00;26.30
19242;DHT22;9755;47.790;9.620;2023-03-17T11:32:45;22.10;27.30
19242;DHT22;9755;47.790;9.620;2023-03-17T11:35:31;21.90;26.90
19242;DHT22;9755;47.790;9.620;2023-03-17T11:38:22;22.50;27.80
19242;DHT22;9755;47.790;9.620;2023-03-17T11:41:07;22.60;28.10
19242;DHT22;9755;47.790;9.620;2023-03-17T11:43:41;21.70;28.20
19242;DHT22;9755;47.790;9.620;2023-03-17T11:46:12;21.20;29.60
19242;DHT22;9755;47.790;9.620;2023-03-17T11:48:47;21.40;29.30
19242;DHT22;9755;47.790;9.620;2023-03-17T11:51:24;21.90;29.80
19242;DHT22;9755;47.790;9.620;2023-03-17T11:54:09;21.90;30.10
19242;DHT22;9755;47.790;9.620;2023-03-17T11:56:43;22.10;29.60
19242;DHT22;9755;47.790;9.620;2023-03-17T11:59:16;21.80;27.90
19242;DHT22;9755;47.790;9.620;2023-03-17T12:01:49;21.20;28.10
19242;DHT22;9755;47.790;9.620;2023-03-17T12:04:24;20.30;29.30
19242;DHT22;9755;47.790;9.620;2023-03-17T12:06:59;20.40;30.00
19242;DHT22;9755;47.790;9.620;2023-03-17T12:09:33;20.50;29.50
19242;DHT22;9755;47.790;9.620;2023-03-17T12:12:03;20.80;29.40
19242;DHT22;9755;47.790;9.620;2023-03-17T12:14:34;21.70;30.10
19242;DHT22;9755;47.790;9.620;2023-03-17T12:17:05;20.50;29.40
19242;DHT22;9755;47.790;9.620;2023-03-17T12:19:40;20.60;29.40
19242;DHT22;9755;47.790;9.620;2023-03-17T12:22:16;20.90;30.00
19242;DHT22;9755;47.790;9.620;2023-03-17T12:25:01;21.20;30.70
19242;DHT22;9755;47.790;9.620;2023-03-17T12:27:33;21.10;29.50
19242;DHT22;9755;47.790;9.620;2023-03-17T12:30:05;20.80;29.70
19242;DHT22;9755;47.790;9.620;2023-03-17T12:32:38;20.80;29.30
19242;DHT22;9755;47.790;9.620;2023-03-17T12:35:24;20.60;29.30
19242;DHT22;9755;47.790;9.620;2023-03-17T12:37:54;19.90;29.30
19242;DHT22;9755;47.790;9.620;2023-03-17T12:40:26;20.20;31.80
19242;DHT22;9755;47.790;9.620;2023-03-17T12:43:18;20.80;31.80
19242;DHT22;9755;47.790;9.620;2023-03-17T12:46:10;21.20;31.10
19242;DHT22;9755;47.790;9.620;2023-03-17T12:48:48;21.50;31.50
19242;DHT22;9755;47.790;9.620;2023-03-17T12:54:27;21.40;31.70
19242;DHT22;9755;47.790;9.620;2023-03-17T12:57:02;21.10;31.20
19242;DHT22;9755;47.790;9.620;2023-03-17T12:59:30;21.60;30.20
19242;DHT22;9755;47.790;9.620;2023-03-17T13:02:14;21.60;27.40
19242;DHT22;9755;47.790;9.620;2023-03-17T13:04:48;20.00;27.70
19242;DHT22;9755;47.790;9.620;2023-03-17T13:07:21;20.40;29.40
19242;DHT22;9755;47.790;9.620;2023-03-17T13:09:50;20.60;31.10
19242;DHT22;9755;47.790;9.620;2023-03-17T13:13:06;21.30;30.60
19242;DHT22;9755;47.790;9.620;2023-03-17T13:15:51;22.20;30.90
19242;DHT22;9755;47.790;9.620;2023-03-17T13:21:24;22.70;28.60
19242;DHT22;9755;47.790;9.620;2023-03-17T13:23:59;22.90;27.80
19242;DHT22;9755;47.790;9.620;2023-03-17T13:26:53;21.20;24.90
19242;DHT22;9755;47.790;9.620;2023-03-17T13:29:38;20.60;26.20
19242;DHT22;9755;47.790;9.620;2023-03-17T13:35:36;20.40;26.50
19242;DHT22;9755;47.790;9.620;2023-03-17T13:38:29;19.70;29.30
19242;DHT22;9755;47.790;9.620;2023-03-17T13:44:26;21.10;30.00
19242;DHT22;9755;47.790;9.620;2023-03-17T13:47:24;21.60;29.60
19242;DHT22;9755;47.790;9.620;2023-03-17T13:49:54;20.90;28.60
19242;DHT22;9755;47.790;9.620;2023-03-17T13:52:26;21.10;29.30
19242;DHT22;9755;47.790;9.620;2023-03-17T13:55:02;20.30;28.80
19242;DHT22;9755;47.790;9.620;2023-03-17T13:57:35;20.20;29.70
19242;DHT22;9755;47.790;9.620;2023-03-17T14:00:19;20.20;29.70
19242;DHT22;9755;47.790;9.620;2023-03-17T14:02:49;19.60;28.80
19242;DHT22;9755;47.790;9.620;2023-03-17T14:05:25;20.00;30.40
19242;DHT22;9755;47.790;9.620;2023-03-17T14:07:56;19.70;28.70
19242;DHT22;9755;47.790;9.620;2023-03-17T14:10:26;20.30;28.90
19242;DHT22;9755;47.790;9.620;2023-03-17T14:12:58;20.20;29.60
19242;DHT22;9755;47.790;9.620;2023-03-17T14:15:31;20.60;29.40
19242;DHT22;9755;47.790;9.620;2023-03-17T14:18:02;20.30;29.10
19242;DHT22;9755;47.790;9.620;2023-03-17T14:20:33;19.80;28.90
19242;DHT22;9755;47.790;9.620;2023-03-17T14:23:02;19.80;29.70
19242;DHT22;9755;47.790;9.620;2023-03-17T14:25:31;19.40;29.10
19242;DHT22;9755;47.790;9.620;2023-03-17T14:27:59;19.60;29.70
19242;DHT22;9755;47.790;9.620;2023-03-17T14:30:32;19.80;29.00
19242;DHT22;9755;47.790;9.620;2023-03-17T14:33:03;20.10;28.70
19242;DHT22;9755;47.790;9.620;2023-03-17T14:35:32;20.20;28.60
19242;DHT22;9755;47.790;9.620;2023-03-17T14:37:59;20.20;28.90
19242;DHT22;9755;47.790;9.620;2023-03-17T14:40:31;20.30;28.30
19242;DHT22;9755;47.790;9.620;2023-03-17T14:43:02;20.40;28.10
19242;DHT22;9755;47.790;9.620;2023-03-17T14:45:37;20.30;28.10
19242;DHT22;9755;47.790;9.620;2023-03-17T14:48:09;19.70;27.30
19242;DHT22;9755;47.790;9.620;2023-03-17T14:50:38;19.60;27.80
19242;DHT22;9755;47.790;9.620;2023-03-17T14:53:14;19.60;28.70
19242;DHT22;9755;47.790;9.620;2023-03-17T14:55:42;19.00;28.20
19242;DHT22;9755;47.790;9.620;2023-03-17T14:58:17;19.20;28.10
19242;DHT22;9755;47.790;9.620;2023-03-17T15:00:54;19.30;27.90
19242;DHT22;9755;47.790;9.620;2023-03-17T15:03:23;19.20;27.70
19242;DHT22;9755;47.790;9.620;2023-03-17T15:06:03;19.10;27.80
19242;DHT22;9755;47.790;9.620;2023-03-17T15:08:41;18.80;27.80
19242;DHT22;9755;47.790;9.620;2023-03-17T15:23:49;18.60;28.40
19242;DHT22;9755;47.790;9.620;2023-03-17T15:26:21;17.70;33.00
19242;DHT22;9755;47.790;9.620;2023-03-17T15:28:48;17.70;33.90
19242;DHT22;9755;47.790;9.620;2023-03-17T15:31:16;17.50;34.60
19242;DHT22;9755;47.790;9.620;2023-03-17T15:33:50;17.30;37.90
19242;DHT22;9755;47.790;9.620;2023-03-17T15:36:17;17.30;39.00
19242;DHT22;9755;47.790;9.620;2023-03-17T15:38:44;17.10;38.80
19242;DHT22;9755;47.790;9.620;2023-03-17T15:41:12;17.00;39.20
19242;DHT22;9755;47.790;9.620;2023-03-17T15:43:39;16.90;38.80
19242;DHT22;9755;47.790;9.620;2023-03-17T15:46:09;16.80;38.80
19242;DHT22;9755;47.790;9.620;2023-03-17T15:48:40;16.90;38.70
19242;DHT22;9755;47.790;9.620;2023-03-17T15:51:09;16.80;39.30
19242;DHT22;9755;47.790;9.620;2023-03-17T15:53:36;16.90;39.80
19242;DHT22;9755;47.790;9.620;2023-03-17T15:56:48;16.90;40.60
19242;DHT22;9755;47.790;9.620;2023-03-17T15:59:12;16.60;40.60
19242;DHT22;9755;47.790;9.620;2023-03-17T16:01:55;16.40;41.90
19242;DHT22;9755;47.790;9.620;2023-03-17T16:04:32;16.30;41.10
19242;DHT22;9755;47.790;9.620;2023-03-17T16:07:01;16.20;42.10
19242;DHT22;9755;47.790;9.620;2023-03-17T16:09:28;16.10;42.10
19242;DHT22;9755;47.790;9.620;2023-03-17T16:11:55;16.00;43.80
19242;DHT22;9755;47.790;9.620;2023-03-17T16:14:22;16.00;44.00
19242;DHT22;9755;47.790;9.620;2023-03-17T16:16:49;16.00;45.00
19242;DHT22;9755;47.790;9.620;2023-03-17T16:19:18;15.80;44.60
19242;DHT22;9755;47.790;9.620;2023-03-17T16:21:46;15.70;45.80
19242;DHT22;9755;47.790;9.620;2023-03-17T16:24:17;15.90;46.50
19242;DHT22;9755;47.790;9.620;2023-03-17T16:26:46;15.90;46.90
19242;DHT22;9755;47.790;9.620;2023-03-17T16:29:14;15.80;48.10
19242;DHT22;9755;47.790;9.620;2023-03-17T16:31:43;15.40;48.20
19242;DHT22;9755;47.790;9.620;2023-03-17T16:34:14;15.30;50.90
19242;DHT22;9755;47.790;9.620;2023-03-17T16:36:43;15.10;53.10
19242;DHT22;9755;47.790;9.620;2023-03-17T16:59:03;13.70;72.90
19242;DHT22;9755;47.790;9.620;2023-03-17T17:01:33;13.60;75.70
19242;DHT22;9755;47.790;9.620;2023-03-17T17:04:00;13.40;77.00
19242;DHT22;9755;47.790;9.620;2023-03-17T17:06:27;13.30;77.20
19242;DHT22;9755;47.790;9.620;2023-03-17T17:08:54;13.20;78.50
19242;DHT22;9755;47.790;9.620;2023-03-17T17:11:21;13.10;81.20
19242;DHT22;9755;47.790;9.620;2023-03-17T17:13:48;12.90;82.50
19242;DHT22;9755;47.790;9.620;2023-03-17T17:16:21;12.80;84.00
19242;DHT22;9755;47.790;9.620;2023-03-17T17:18:48;12.80;85.30
19242;DHT22;9755;47.790;9.620;2023-03-17T17:21:18;12.70;87.50
19242;DHT22;9755;47.790;9.620;2023-03-17T17:23:45;12.60;88.10
19242;DHT22;9755;47.790;9.620;2023-03-17T17:26:15;12.50;89.10
19242;DHT22;9755;47.790;9.620;2023-03-17T17:28:44;12.50;88.80
19242;DHT22;9755;47.790;9.620;2023-03-17T17:31:11;12.30;90.10
19242;DHT22;9755;47.790;9.620;2023-03-17T17:33:40;12.10;91.30
19242;DHT22;9755;47.790;9.620;2023-03-17T17:36:12;11.90;92.40
19242;DHT22;9755;47.790;9.620;2023-03-17T17:38:40;11.90;92.70
19242;DHT22;9755;47.790;9.620;2023-03-17T17:41:08;11.80;93.20
19242;DHT22;9755;47.790;9.620;2023-03-17T17:43:36;11.70;94.50
19242;DHT22;9755;47.790;9.620;2023-03-17T17:46:05;11.60;95.40
19242;DHT22;9755;47.790;9.620;2023-03-17T17:48:35;11.40;96.30
19242;DHT22;9755;47.790;9.620;2023-03-17T17:51:03;11.30;96.70
19242;DHT22;9755;47.790;9.620;2023-03-17T17:53:30;11.30;96.40
19242;DHT22;9755;47.790;9.620;2023-03-17T17:55:57;11.30;96.70
19242;DHT22;9755;47.790;9.620;2023-03-17T17:58:25;11.30;97.10
19242;DHT22;9755;47.790;9.620;2023-03-17T18:00:52;11.40;96.60